Time;durP1;ratioP1;P1;durP2;ratioP2;P2;SDS_P1;SDS_P2;PMS_P1;PMS_P2;Temp;Humidity;BMP_temperature;BMP_pressure;BME280_temperature;BME280_humidity;BME280_pressure;Samples;Min_cycle;Max_cycle;Signal;HPM_P1;HPM_P2
2023/09/19 00:02:11;;;;;;;11.88;7.75;;;;;;;10.75;97.06;100950.75;10568918;28;20514;-84
2023/09/19 00:07:13;;;;;;;11.77;7.60;;;;;;;10.17;96.58;100875.03;10587577;28;20093;-84
2023/09/19 00:12:21;;;;;;;27.70;8.05;;;;;;;10.77;96.73;100985.97;10587031;28;20063;-84
2023/09/19 00:22:53;;;;;;;16.92;8.02;;;;;;;9.33;97.76;100783.31;10570740;28;20568;-83
2023/09/19 00:28:06;;;;;;;11.87;6.77;;;;;;;8.98;96.84;100741.69;10586010;28;20048;-83
2023/09/19 00:33:25;;;;;;;15.18;7.80;;;;;;;9.32;98.26;100820.56;10569139;28;20043;-83
2023/09/19 00:38:50;;;;;;;19.73;7.33;;;;;;;10.09;98.18;100957.25;10569220;28;20403;-83
2023/09/19 00:44:10;;;;;;;10.65;7.15;;;;;;;9.51;98.17;100880.63;10568394;28;20281;-84
2023/09/19 00:49:21;;;;;;;;;;;;;;;;;;;;;
2023/09/19 00:54:34;;;;;;;11.88;7.50;;;;;;;9.13;96.94;100832.97;10585662;28;20082;-84
2023/09/19 00:59:48;;;;;;;13.43;6.45;;;;;;;9.62;97.48;100919.38;10584191;28;20384;-84
2023/09/19 01:04:57;;;;;;;14.32;7.13;;;;;;;9.17;97.48;100856.50;10584026;28;20059;-83
2023/09/19 01:10:19;;;;;;;;;;;;;;;;;;;;;
2023/09/19 01:15:39;;;;;;;10.55;6.90;;;;;;;8.89;98.24;100787.59;10584571;28;20043;-83
2023/09/19 01:21:36;;;;;;;11.75;6.70;;;;;;;9.19;98.93;100842.13;10566123;28;20128;-84
2023/09/19 01:26:49;;;;;;;12.73;6.53;;;;;;;9.47;97.27;100906.59;10459309;28;20423;-84
2023/09/19 01:31:54;;;;;;;23.38;6.95;;;;;;;9.30;97.60;100894.13;10564891;28;20134;-84
2023/09/19 01:36:54;;;;;;;12.65;7.45;;;;;;;9.41;97.25;100915.16;10565162;28;20047;-83
2023/09/19 01:42:15;;;;;;;17.25;6.82;;;;;;;9.37;97.88;100927.88;10583204;28;20442;-83
2023/09/19 01:47:43;;;;;;;12.00;7.38;;;;;;;9.42;99.57;100932.72;10582925;28;20188;-84
2023/09/19 01:52:54;;;;;;;19.90;9.13;;;;;;;9.75;98.30;100973.78;10582586;28;20134;-83
2023/09/19 01:58:16;;;;;;;18.58;8.02;;;;;;;9.53;98.75;100921.09;10564700;28;20062;-83
2023/09/19 02:03:22;;;;;;;14.27;7.50;;;;;;;8.43;97.28;100792.75;10563933;28;20063;-83
2023/09/19 02:08:26;;;;;;;16.85;8.48;;;;;;;8.96;96.91;100870.00;10562001;28;20163;-83
2023/09/19 02:13:27;;;;;;;21.77;8.27;;;;;;;9.45;97.29;100985.47;10581635;28;20531;-83
2023/09/19 02:18:28;;;;;;;20.83;7.40;;;;;;;9.50;97.21;101006.25;10563782;28;20039;-83
2023/09/19 02:23:30;;;;;;;60.42;9.80;;;;;;;9.09;97.25;100955.28;10562507;28;20052;-83
2023/09/19 02:28:31;;;;;;;26.83;8.13;;;;;;;9.30;97.39;101005.47;10581113;28;20134;-83
2023/09/19 02:33:32;;;;;;;61.25;9.43;;;;;;;8.96;97.53;100954.78;10580319;28;20071;-83
2023/09/19 02:38:33;;;;;;;38.88;8.75;;;;;;;8.57;97.22;100910.63;10579758;28;20047;-84
2023/09/19 02:43:36;;;;;;;44.35;9.13;;;;;;;8.87;97.26;100969.72;10581705;28;20521;-78
2023/09/19 02:48:37;;;;;;;156.98;14.23;;;;;;;8.96;97.45;101003.31;10579755;28;20043;-78
2023/09/19 02:53:38;;;;;;;36.03;7.63;;;;;;;9.01;97.51;101009.03;10576993;28;20055;-77
2023/09/19 02:58:39;;;;;;;92.80;9.60;;;;;;;8.70;97.51;100952.72;10579452;28;20138;-77
2023/09/19 03:03:40;;;;;;;63.75;9.88;;;;;;;9.14;97.50;101028.09;10578534;28;20051;-77
2023/09/19 03:08:43;;;;;;;64.65;9.93;;;;;;;9.27;97.56;101034.91;10556785;28;20599;-77
2023/09/19 03:13:45;;;;;;;89.03;11.13;;;;;;;9.12;97.59;100990.34;10578272;28;20053;-80
2023/09/19 03:18:47;;;;;;;46.40;11.82;;;;;;;8.29;97.32;100824.13;10578190;28;20047;-72
2023/09/19 03:23:48;;;;;;;72.93;12.93;;;;;;;9.60;97.09;101015.00;10579409;28;20058;-71
2023/09/19 03:28:48;;;;;;;43.67;11.00;;;;;;;10.02;97.04;101054.34;10578681;28;20050;-72
2023/09/19 03:33:49;;;;;;;36.00;10.50;;;;;;;9.98;96.68;100984.81;10582716;28;20048;-72
2023/09/19 03:38:50;;;;;;;40.90;9.82;;;;;;;10.60;95.75;101024.00;10587979;28;20077;-84
2023/09/19 03:43:51;;;;;;;21.15;9.40;;;;;;;11.18;95.31;101047.41;10569049;28;20067;-84
2023/09/19 03:48:51;;;;;;;29.88;10.15;;;;;;;11.76;94.88;101044.16;10586876;28;20044;-72
2023/09/19 03:53:52;;;;;;;20.77;8.07;;;;;;;12.33;93.47;101023.09;10586442;28;20431;-76
2023/09/19 03:58:53;;;;;;;27.35;7.93;;;;;;;13.09;91.20;100985.66;10586800;28;20055;-74
2023/09/19 04:03:54;;;;;;;17.38;7.43;;;;;;;14.42;89.11;101042.81;10585482;28;20083;-74
2023/09/19 04:08:57;;;;;;;10.77;6.45;;;;;;;15.21;86.20;101042.56;10586836;28;20075;-72
2023/09/19 04:13:58;;;;;;;11.77;6.25;;;;;;;15.63;83.69;101012.50;10586489;28;20406;-76
2023/09/19 04:18:59;;;;;;;9.63;5.65;;;;;;;16.48;81.61;101042.44;10585812;28;20051;-80
2023/09/19 04:23:59;;;;;;;12.85;6.30;;;;;;;16.86;78.14;101013.56;10586548;28;20055;-73
2023/09/19 04:29:00;;;;;;;10.40;6.50;;;;;;;16.91;75.31;101013.81;10585817;28;20131;-84
2023/09/19 04:34:02;;;;;;;10.35;6.70;;;;;;;17.06;73.08;101052.16;10585716;28;20055;-77
2023/09/19 04:39:07;;;;;;;35.85;7.85;;;;;;;16.22;73.48;101003.63;10584963;28;20077;-69
2023/09/19 04:44:08;;;;;;;14.52;7.95;;;;;;;16.24;73.20;101020.31;10584413;28;20046;-95
2023/09/19 04:49:09;;;;;;;13.95;8.00;;;;;;;16.44;72.87;101050.88;10587738;28;20138;-94
2023/09/19 04:54:10;;;;;;;12.88;8.10;;;;;;;16.35;72.24;101010.97;10569722;28;20050;-94
2023/09/19 08:15:09;;;;;;;4.55;2.38;;;;;;;25.28;43.35;101000.56;10509791;28;20147;-83
2023/09/19 08:20:16;;;;;;;3.80;2.00;;;;;;;24.22;44.80;100842.91;10496007;28;20053;-86
2023/09/19 08:25:19;;;;;;;6.80;2.10;;;;;;;25.20;44.38;100973.81;10505159;28;20052;-86
2023/09/19 08:30:23;;;;;;;;;;;;;;;25.62;43.76;100979.53;10503769;28;20052;-87
2023/09/19 08:35:24;;;;;;;2.58;1.90;;;;;;;24.34;43.24;100797.47;10507444;28;20030;-88
2023/09/19 08:40:33;;;;;;;4.20;2.25;;;;;;;24.89;41.84;100859.19;10501642;28;20075;-87
2023/09/19 08:45:38;;;;;;;2.50;1.83;;;;;;;25.16;41.70;100889.19;10501198;28;20044;-86
2023/09/19 08:57:41;;;;;;;3.40;1.98;;;;;;;25.03;40.22;100819.66;10288247;28;20054;-87
2023/09/19 09:03:06;;;;;;;2.70;1.75;;;;;;;24.45;39.21;100768.63;10316899;28;20050;-87
2023/09/19 09:34:19;;;;;;;;;;;;;;;;;;;;;
2023/09/19 09:51:31;;;;;;;2.97;1.80;;;;;;;26.17;36.38;100905.06;10457378;28;20063;-83
2023/09/19 09:56:35;;;;;;;4.25;1.85;;;;;;;25.30;38.04;100755.56;10457019;28;20053;-85
2023/09/19 10:01:48;;;;;;;4.38;1.80;;;;;;;25.18;37.34;100690.47;10457111;28;20045;-83
2023/09/19 10:06:53;;;;;;;4.65;1.70;;;;;;;25.85;36.64;100795.34;10457698;28;20413;-84
2023/09/19 10:12:08;;;;;;;6.68;1.92;;;;;;;26.22;35.70;100828.03;10455876;28;20056;-81
2023/09/19 10:17:10;;;;;;;6.60;1.90;;;;;;;25.84;35.94;100797.22;10454854;28;20053;-84
2023/09/19 10:22:14;;;;;;;4.43;1.70;;;;;;;25.73;36.51;100763.63;10456603;28;20053;-84
2023/09/19 10:27:17;;;;;;;4.40;1.88;;;;;;;26.50;35.72;100862.31;10455350;28;20049;-80
2023/09/19 10:32:19;;;;;;;12.98;2.90;;;;;;;26.32;35.29;100849.06;10455239;28;20187;-83
2023/09/19 10:37:29;;;;;;;7.30;2.00;;;;;;;26.32;34.78;100852.59;10455837;28;20045;-85
2023/09/19 10:42:33;;;;;;;5.15;1.85;;;;;;;26.29;34.28;100825.06;10455304;28;20049;-82
2023/09/19 10:47:59;;;;;;;6.45;2.20;;;;;;;26.01;34.18;100760.88;10454665;28;20041;-83
2023/09/19 10:53:28;;;;;;;3.75;1.90;;;;;;;25.96;32.23;100789.69;10454161;28;20430;-83
2023/09/19 10:59:01;;;;;;;10.70;2.15;;;;;;;24.88;33.26;100615.66;10455124;28;20055;-83
2023/09/19 11:04:31;;;;;;;6.88;2.20;;;;;;;26.32;32.96;100828.09;10448622;28;20053;-83
2023/09/19 11:09:48;;;;;;;6.35;2.30;;;;;;;25.86;32.24;100781.44;10454572;28;20056;-82
2023/09/19 11:14:49;;;;;;;3.60;1.73;;;;;;;25.53;32.39;100765.34;10452620;28;20067;-83
2023/09/19 11:25:29;;;;;;;7.65;2.20;;;;;;;26.01;32.85;100813.44;10454313;28;20060;-87
2023/09/19 11:30:32;;;;;;;5.72;2.30;;;;;;;25.99;33.27;100803.88;10452586;28;20057;-91
2023/09/19 11:36:09;;;;;;;2.88;2.08;;;;;;;26.02;32.70;100800.63;10453010;28;20072;-83
2023/09/19 11:41:26;;;;;;;7.25;2.08;;;;;;;26.14;32.60;100795.81;10452724;28;20067;-84
2023/09/19 11:46:29;;;;;;;21.88;2.10;;;;;;;25.31;32.90;100672.91;10452058;28;20144;-82
2023/09/19 11:51:42;;;;;;;2.92;1.88;;;;;;;25.05;33.18;100634.59;10485893;28;20052;-85
2023/09/19 12:20:47;;;;;;;5.05;2.00;;;;;;;25.27;33.06;100695.19;10482490;28;20048;-80
2023/09/19 12:25:55;;;;;;;14.55;2.38;;;;;;;25.04;33.91;100658.25;10507236;28;20044;-81
2023/09/19 12:31:07;;;;;;;5.82;2.20;;;;;;;25.45;33.52;100734.78;10544265;28;20054;-82
2023/09/19 12:36:34;;;;;;;4.80;1.97;;;;;;;25.61;34.17;100762.97;10525163;28;20047;-80
2023/09/19 12:41:35;;;;;;;3.95;2.20;;;;;;;25.37;34.75;100746.16;10525849;28;20486;-81
2023/09/19 12:46:37;;;;;;;13.25;2.35;;;;;;;25.19;35.17;100732.91;10543183;28;20142;-82
2023/09/19 12:51:40;;;;;;;3.83;1.60;;;;;;;24.78;34.96;100675.34;10543073;28;20445;-82
2023/09/19 12:56:44;;;;;;;5.78;1.98;;;;;;;25.29;35.07;100749.31;10542773;28;20048;-82
2023/09/19 13:01:46;;;;;;;5.22;1.98;;;;;;;24.73;34.74;100692.41;10542364;28;20482;-80
2023/09/19 13:06:50;;;;;;;7.47;2.05;;;;;;;24.93;35.68;100719.00;10542234;28;20392;-81
2023/09/19 13:11:54;;;;;;;11.45;2.70;;;;;;;24.88;35.34;100723.53;10558828;28;20060;-80
2023/09/19 13:17:19;;;;;;;4.63;2.20;;;;;;;24.57;35.32;100701.44;10580112;27;20435;-81
2023/09/19 13:22:39;;;;;;;8.00;2.00;;;;;;;24.73;35.00;100724.19;10552216;28;20132;-80
2023/09/19 13:27:41;;;;;;;10.30;2.75;;;;;;;24.69;35.51;100747.50;10556542;28;20507;-82
2023/09/19 13:32:43;;;;;;;9.20;2.05;;;;;;;24.40;36.51;100709.59;10565468;28;20055;-82
2023/09/19 13:37:49;;;;;;;3.50;1.92;;;;;;;23.67;35.90;100606.50;10582719;28;20090;-81
2023/09/19 13:42:53;;;;;;;9.20;2.13;;;;;;;23.61;36.29;100601.25;10567264;27;20051;-81
2023/09/19 13:47:53;;;;;;;3.58;1.90;;;;;;;24.29;36.57;100737.66;10580149;28;20047;-82
2023/09/19 13:52:55;;;;;;;6.82;2.10;;;;;;;24.11;36.99;100731.47;10580363;28;20051;-73
2023/09/19 13:57:57;;;;;;;6.40;2.20;;;;;;;23.63;37.72;100665.03;10549437;28;20056;-82
2023/09/19 14:02:58;;;;;;;8.82;2.50;;;;;;;23.70;38.12;100705.56;10494148;28;20095;-83
2023/09/19 14:08:03;;;;;;;13.68;2.08;;;;;;;22.35;37.84;100499.41;10458465;28;20102;-83
2023/09/19 14:13:04;;;;;;;17.77;2.75;;;;;;;23.32;38.08;100684.53;10487568;28;20092;-82
2023/09/19 14:18:05;;;;;;;6.75;2.15;;;;;;;23.40;38.70;100705.84;10454282;28;20110;-82
2023/09/19 14:23:06;;;;;;;37.03;3.63;;;;;;;23.02;39.71;100672.09;10456356;28;20489;-83
2023/09/19 14:28:10;;;;;;;10.15;2.45;;;;;;;22.74;39.82;100657.44;10456085;28;20049;-80
2023/09/19 14:33:10;;;;;;;;;;;;;;;23.26;39.33;100737.84;10457366;28;20091;-83
2023/09/19 14:38:11;;;;;;;6.03;1.95;;;;;;;22.98;40.25;100746.78;10455133;28;19947;-89
2023/09/19 14:43:12;;;;;;;10.40;2.17;;;;;;;22.10;40.59;100626.84;10465274;28;20087;-83
2023/09/19 14:48:12;;;;;;;20.98;2.58;;;;;;;22.13;41.31;100663.41;10463925;28;20063;-85
2023/09/19 14:53:13;;;;;;;13.23;2.67;;;;;;;22.18;41.46;100709.56;10454691;28;20049;-86
2023/09/19 14:58:14;;;;;;;24.65;3.30;;;;;;;21.97;42.36;100692.00;10485216;23;20065;-85
2023/09/19 15:03:15;;;;;;;12.10;2.60;;;;;;;22.02;42.45;100724.59;10413666;28;20045;-84
2023/09/19 15:08:16;;;;;;;7.57;2.47;;;;;;;21.46;42.72;100663.75;10413117;28;20103;-84
2023/09/19 15:13:16;;;;;;;11.45;2.50;;;;;;;21.51;43.46;100698.97;10412923;28;20042;-86
2023/09/19 15:18:17;;;;;;;12.55;2.40;;;;;;;20.78;44.40;100629.78;10420712;28;20045;-83
2023/09/19 15:23:18;;;;;;;16.25;2.63;;;;;;;20.58;44.82;100646.22;10436412;28;20497;-84
2023/09/19 15:28:22;;;;;;;14.38;2.95;;;;;;;21.11;45.38;100750.88;10455736;28;20110;-84
2023/09/19 15:33:24;;;;;;;9.25;2.50;;;;;;;20.26;46.12;100659.84;10462572;28;20075;-84
2023/09/19 15:38:28;;;;;;;5.00;2.50;;;;;;;20.32;46.36;100691.34;10462743;28;20084;-84
2023/09/19 15:43:30;;;;;;;;;;;;;;;20.78;46.30;100765.59;10462401;28;20045;-84
2023/09/19 15:48:31;;;;;;;13.95;2.75;;;;;;;20.43;46.98;100771.56;10461691;28;19920;-84
2023/09/19 15:53:43;;;;;;;9.88;2.60;;;;;;;19.71;47.97;100689.41;10462039;28;20041;-84
2023/09/19 15:58:46;;;;;;;6.93;2.33;;;;;;;20.08;47.82;100789.31;10423927;28;20062;-73
2023/09/19 16:03:49;;;;;;;10.43;2.70;;;;;;;19.47;48.93;100710.69;10420177;28;20094;-73
2023/09/19 16:08:52;;;;;;;19.83;2.50;;;;;;;19.81;48.85;100792.19;10421121;28;20080;-72
2023/09/19 16:13:54;;;;;;;16.95;2.28;;;;;;;19.49;49.72;100765.19;10420052;28;20136;-73
2023/09/19 16:19:05;;;;;;;16.45;2.40;;;;;;;19.46;50.28;100787.19;10401124;28;20402;-74
2023/09/19 16:24:09;;;;;;;10.50;2.30;;;;;;;19.37;50.39;100801.94;10417131;28;20069;-72
2023/09/19 16:29:12;;;;;;;21.95;2.88;;;;;;;19.06;51.13;100790.06;10410681;28;20049;-75
2023/09/19 16:34:14;;;;;;;10.05;2.42;;;;;;;18.70;51.40;100763.66;10396574;28;20097;-82
2023/09/19 16:39:15;;;;;;;13.38;2.90;;;;;;;18.96;51.88;100818.47;10401460;28;20107;-81
2023/09/19 16:44:16;;;;;;;6.47;2.30;;;;;;;18.85;51.63;100825.34;10378512;28;20099;-82
2023/09/19 16:49:18;;;;;;;12.07;2.35;;;;;;;18.34;52.10;100775.72;10379532;28;20060;-82
2023/09/19 16:54:19;;;;;;;4.80;1.80;;;;;;;18.61;52.43;100841.06;10385966;28;20516;-82
2023/09/19 16:59:23;;;;;;;6.57;2.47;;;;;;;18.12;53.21;100788.53;10387678;28;20053;-82
2023/09/19 17:04:24;;;;;;;5.93;1.95;;;;;;;18.35;53.43;100844.59;10377159;28;20520;-82
2023/09/19 17:09:25;;;;;;;8.32;2.10;;;;;;;18.12;53.98;100842.31;10380643;28;20144;-82
2023/09/19 17:14:27;;;;;;;10.75;2.30;;;;;;;17.62;54.08;100773.75;10394252;28;20053;-82
2023/09/19 17:19:30;;;;;;;15.68;2.50;;;;;;;18.00;54.17;100854.69;10378811;28;20045;-81
2023/09/19 17:24:31;;;;;;;14.80;2.67;;;;;;;17.86;54.18;100836.88;10384425;28;20425;-82
2023/09/19 17:29:33;;;;;;;31.00;3.10;;;;;;;17.37;55.13;100765.44;10378798;28;20050;-82
2023/09/19 17:34:34;;;;;;;5.80;2.42;;;;;;;17.52;55.16;100811.78;10383979;28;20050;-82
2023/09/19 17:39:34;;;;;;;6.32;2.20;;;;;;;17.72;54.92;100863.72;10375080;28;20054;-82
2023/09/19 17:44:35;;;;;;;6.68;2.35;;;;;;;17.63;55.16;100845.28;10392975;28;20057;-82
2023/09/19 17:49:36;;;;;;;3.85;2.08;;;;;;;17.53;55.11;100838.44;10390059;28;20054;-82
2023/09/19 17:54:37;;;;;;;4.35;1.90;;;;;;;17.16;54.88;100780.66;10387575;28;20061;-82
2023/09/19 17:59:38;;;;;;;9.45;2.25;;;;;;;17.03;55.04;100777.94;10383974;28;20120;-81
2023/09/19 18:04:40;;;;;;;10.00;2.70;;;;;;;16.51;55.61;100693.44;10374593;28;20053;-81
2023/09/19 18:09:41;;;;;;;10.23;2.30;;;;;;;17.38;55.62;100844.97;10385808;28;20136;-82
2023/09/19 18:14:42;;;;;;;7.68;2.40;;;;;;;16.74;55.54;100752.97;10396303;28;20057;-81
2023/09/19 18:19:42;;;;;;;13.50;2.90;;;;;;;16.83;56.28;100792.06;10392465;28;20049;-82
2023/09/19 18:24:43;;;;;;;23.92;3.30;;;;;;;17.16;57.01;100849.63;10414645;28;20563;-81
2023/09/19 18:29:46;;;;;;;6.85;2.65;;;;;;;17.07;57.18;100849.78;10414091;28;20108;-81
2023/09/19 18:34:47;;;;;;;11.43;2.55;;;;;;;16.53;57.14;100767.31;10413972;28;20077;-81
2023/09/19 18:39:48;;;;;;;4.72;2.40;;;;;;;16.78;57.07;100815.16;10414354;28;20077;-82
2023/09/19 18:44:49;;;;;;;6.75;2.67;;;;;;;16.82;57.45;100833.34;10413924;28;20132;-82
2023/09/19 18:49:50;;;;;;;5.82;2.90;;;;;;;16.84;57.97;100852.78;10396332;28;20445;-81
2023/09/19 18:54:50;;;;;;;6.38;2.42;;;;;;;16.38;58.03;100778.13;10395395;28;20053;-82
2023/09/19 18:59:51;;;;;;;6.65;2.50;;;;;;;16.42;58.28;100787.47;10413607;28;20539;-81
2023/09/19 19:04:52;;;;;;;6.75;2.58;;;;;;;16.73;58.09;100834.50;10411311;28;20123;-81
2023/09/19 19:09:53;;;;;;;5.43;2.53;;;;;;;16.70;58.91;100859.03;10382732;28;20533;-79
2023/09/19 19:14:54;;;;;;;4.75;2.42;;;;;;;16.51;59.07;100825.69;10354480;28;20046;-79
2023/09/19 19:19:54;;;;;;;4.65;2.78;;;;;;;16.59;58.91;100828.22;10385303;28;20053;-79
2023/09/19 19:24:56;;;;;;;5.75;2.53;;;;;;;16.82;58.79;100824.47;10403355;28;20540;-81
2023/09/19 19:29:57;;;;;;;6.32;3.10;;;;;;;16.98;59.03;100836.75;10413356;28;20135;-80
2023/09/19 19:34:57;;;;;;;5.07;2.75;;;;;;;16.67;58.75;100765.53;10380078;28;20135;-80
2023/09/19 19:39:59;;;;;;;7.38;2.83;;;;;;;17.16;58.71;100837.03;10413393;28;20136;-80
2023/09/19 19:45:00;;;;;;;4.60;2.80;;;;;;;17.20;58.43;100832.09;10412530;28;20060;-80
2023/09/19 19:50:00;;;;;;;8.38;3.20;;;;;;;16.88;58.65;100792.31;10412724;28;20053;-81
2023/09/19 19:55:01;;;;;;;8.30;3.08;;;;;;;17.08;59.03;100839.88;10411885;28;20053;-80
2023/09/19 20:00:06;;;;;;;6.70;2.80;;;;;;;16.99;59.31;100846.44;10412612;28;20145;-80
2023/09/19 20:05:07;;;;;;;10.85;2.88;;;;;;;16.42;59.77;100775.88;10412365;28;20053;-80
2023/09/19 20:10:20;;;;;;;10.93;2.90;;;;;;;16.72;61.43;100851.63;10411991;28;20485;-80
2023/09/19 20:15:21;;;;;;;9.25;3.65;;;;;;;16.01;61.25;100784.66;10413892;28;20055;-80
2023/09/19 20:20:22;;;;;;;7.97;3.30;;;;;;;16.04;62.31;100810.25;10420115;28;20052;-80
2023/09/19 20:25:23;;;;;;;28.08;3.67;;;;;;;15.84;62.75;100804.69;10419581;28;20041;-80
2023/09/19 20:30:24;;;;;;;5.03;3.25;;;;;;;16.03;63.17;100840.72;10419639;28;20548;-79
2023/09/19 20:35:25;;;;;;;6.05;3.13;;;;;;;15.66;63.62;100800.56;10419171;28;20056;-80
2023/09/19 20:40:26;;;;;;;4.18;3.00;;;;;;;15.18;64.44;100738.66;10418630;28;20156;-79
2023/09/19 20:45:27;;;;;;;7.65;3.10;;;;;;;15.80;64.58;100839.06;10418197;28;20080;-79
2023/09/19 20:50:28;;;;;;;4.45;3.20;;;;;;;15.71;64.93;100845.56;10401003;28;20136;-80
2023/09/19 20:55:29;;;;;;;9.75;3.75;;;;;;;15.57;65.81;100841.88;10418180;28;20138;-80
2023/09/19 21:00:30;;;;;;;8.35;3.03;;;;;;;15.50;66.18;100836.44;10418599;28;20076;-80
2023/09/19 21:05:30;;;;;;;8.38;3.20;;;;;;;14.64;66.56;100706.94;10418031;28;20073;-79
2023/09/19 21:10:31;;;;;;;10.90;3.67;;;;;;;14.73;66.75;100737.09;10417310;28;20092;-80
2023/09/19 21:15:32;;;;;;;6.53;3.50;;;;;;;15.22;67.54;100833.63;10417811;28;20053;-80
2023/09/19 21:20:34;;;;;;;14.57;3.80;;;;;;;14.98;68.44;100842.75;10417808;28;20045;-80
2023/09/19 21:25:35;;;;;;;7.13;3.80;;;;;;;14.77;69.12;100834.66;10417448;28;20131;-79
2023/09/19 21:30:36;;;;;;;7.95;4.10;;;;;;;14.64;69.99;100823.75;10416049;28;20091;-79
2023/09/19 21:35:45;;;;;;;7.18;4.07;;;;;;;13.73;72.52;100694.63;10417045;28;20053;-79
2023/09/19 21:40:45;;;;;;;9.45;4.15;;;;;;;14.50;71.05;100842.22;10416609;28;20049;-79
2023/09/19 21:45:46;;;;;;;8.57;3.65;;;;;;;14.43;71.05;100837.81;10417467;28;20059;-79
2023/09/19 21:50:55;;;;;;;8.05;3.88;;;;;;;14.48;71.82;100844.28;10416292;28;20417;-79
2023/09/19 21:56:00;;;;;;;8.00;3.78;;;;;;;14.38;71.69;100824.97;10415767;28;20061;-79
2023/09/19 22:01:07;;;;;;;7.82;3.92;;;;;;;14.12;70.85;100767.44;10415850;28;20053;-79
2023/09/19 22:06:10;;;;;;;7.20;3.65;;;;;;;14.37;71.50;100823.31;10415355;28;20038;-79
2023/09/19 22:11:12;;;;;;;16.80;4.20;;;;;;;14.13;71.65;100801.13;10415487;28;20569;-79
2023/09/19 22:16:15;;;;;;;9.20;4.32;;;;;;;14.02;72.89;100814.09;10413516;28;20606;-79
2023/09/19 22:21:33;;;;;;;28.23;5.90;;;;;;;13.60;73.20;100754.81;10384434;28;20539;-79
2023/09/19 22:26:38;;;;;;;60.30;6.28;;;;;;;13.67;73.30;100795.81;10374712;28;20041;-79
2023/09/19 22:31:42;;;;;;;22.42;5.18;;;;;;;13.47;73.50;100787.44;10373208;28;20093;-79
2023/09/19 22:36:43;;;;;;;8.75;4.30;;;;;;;13.63;73.94;100828.38;10374391;28;20054;-79
2023/09/19 22:41:45;;;;;;;9.50;4.90;;;;;;;13.57;74.62;100827.22;10373336;28;20421;-79
2023/09/19 22:46:48;;;;;;;12.27;5.03;;;;;;;13.10;75.57;100779.25;10372559;28;20049;-79
2023/09/19 22:51:51;;;;;;;7.22;4.82;;;;;;;13.15;75.47;100783.06;10373068;28;20088;-79
2023/09/19 22:56:53;;;;;;;9.67;4.50;;;;;;;12.96;75.87;100786.97;10372735;28;20054;-79
2023/09/19 23:01:57;;;;;;;5.60;4.63;;;;;;;13.07;76.45;100836.44;10372451;28;20065;-79
2023/09/19 23:07:05;;;;;;;10.57;5.30;;;;;;;12.70;77.27;100807.72;10372394;28;20053;-79
2023/09/19 23:12:06;;;;;;;9.85;4.93;;;;;;;12.85;77.75;100845.19;10372673;28;20061;-79
2023/09/19 23:17:14;;;;;;;7.35;5.15;;;;;;;12.83;78.27;100850.66;10371979;28;20081;-79
2023/09/19 23:27:24;;;;;;;33.55;5.35;;;;;;;12.20;78.91;100772.31;10372956;28;20149;-79
2023/09/19 23:32:25;;;;;;;6.50;5.25;;;;;;;12.13;79.53;100758.03;10371611;28;20089;-79
2023/09/19 23:37:25;;;;;;;10.27;5.35;;;;;;;12.33;79.65;100795.81;10371771;28;20081;-79
2023/09/19 23:42:28;;;;;;;13.68;5.28;;;;;;;12.47;80.05;100826.25;10371671;28;20042;-79
2023/09/19 23:47:29;;;;;;;7.68;5.43;;;;;;;12.52;80.24;100843.41;10371913;28;20049;-79
2023/09/19 23:52:29;;;;;;;12.32;5.18;;;;;;;12.48;80.11;100841.25;10359721;28;20064;-79
2023/09/19 23:57:33;;;;;;;26.52;6.10;;;;;;;12.36;81.03;100853.25;10379989;28;20053;-79
